createdAt,value
2018-09-12T00:01:23.167Z,98283.72
2018-09-12T00:03:49.849Z,98285.32
2018-09-12T00:06:16.563Z,98286.82
2018-09-12T00:08:49.793Z,98281.26
2018-09-12T00:11:16.582Z,98281.02
2018-09-12T00:13:44.089Z,98287.76
2018-09-12T00:16:10.976Z,98286.75
2018-09-12T00:18:38.966Z,98287.98
2018-09-12T00:21:06.014Z,98280.17
2018-09-12T00:23:33.783Z,98276.81
2018-09-12T00:28:33.039Z,98276.45
2018-09-12T00:30:59.976Z,98280.83
2018-09-12T00:33:27.908Z,98276.45
2018-09-12T00:40:59.727Z,98282.76
2018-09-12T00:43:26.877Z,98283.28
2018-09-12T00:45:53.619Z,98285.06
2018-09-12T00:48:21.063Z,98277.55
2018-09-12T00:50:49.032Z,98274.44
2018-09-12T00:53:17.436Z,98284.66
2018-09-12T00:55:48.095Z,98278.06
2018-09-12T00:58:16.573Z,98276.93
2018-09-12T01:00:44.404Z,98282.30
2018-09-12T01:05:43.180Z,98280.86
2018-09-12T01:08:11.987Z,98285.19
2018-09-12T01:10:38.858Z,98290.87
2018-09-12T01:13:08.964Z,98287.22
2018-09-12T01:15:38.108Z,98279.86
2018-09-12T01:18:07.162Z,98277.48
2018-09-12T01:23:06.997Z,98272.54
2018-09-12T01:25:33.968Z,98274.95
2018-09-12T01:28:02.582Z,98272.97
2018-09-12T01:30:31.064Z,98268.20
2018-09-12T01:32:57.619Z,98266.21
2018-09-12T01:35:25.286Z,98268.25
2018-09-12T01:37:58.824Z,98268.05
2018-09-12T01:40:26.994Z,98270.80
2018-09-12T01:42:54.236Z,98266.17
2018-09-12T01:45:22.027Z,98259.36
2018-09-12T01:47:50.355Z,98261.16
2018-09-12T01:50:17.919Z,98262.34
2018-09-12T01:52:47.032Z,98264.75
2018-09-12T01:55:13.768Z,98263.91
2018-09-12T01:57:40.771Z,98253.51
2018-09-12T02:00:08.640Z,98254.80
2018-09-12T02:02:37.771Z,98258.31
2018-09-12T02:05:06.658Z,98258.98
2018-09-12T02:07:34.351Z,98251.62
2018-09-12T02:10:02.800Z,98253.08
2018-09-12T02:12:30.277Z,98262.70
2018-09-12T02:14:57.599Z,98259.12
2018-09-12T02:17:26.745Z,98258.45
2018-09-12T02:19:54.252Z,98260.86
2018-09-12T02:24:53.517Z,98264.84
2018-09-12T02:27:21.235Z,98276.10
2018-09-12T02:29:49.616Z,98275.75
2018-09-12T02:32:18.709Z,98270.53
2018-09-12T02:34:46.551Z,98273.00
2018-09-12T02:37:15.521Z,98273.27
2018-09-12T02:39:44.210Z,98272.05
2018-09-12T02:42:11.635Z,98270.08
2018-09-12T02:44:39.582Z,98275.45
2018-09-12T02:47:09.147Z,98278.64
2018-09-12T02:49:37.138Z,98278.59
2018-09-12T02:52:04.851Z,98271.23
2018-09-12T02:54:34.121Z,98281.59
2018-09-12T02:57:01.646Z,98279.52
2018-09-12T02:59:28.891Z,98279.26
2018-09-12T03:01:56.964Z,98281.72
2018-09-12T03:09:27.994Z,98285.19
2018-09-12T03:11:55.710Z,98283.47
2018-09-12T03:14:25.536Z,98280.81
2018-09-12T03:21:56.275Z,98274.72
2018-09-12T03:24:23.213Z,98269.08
2018-09-12T03:26:51.280Z,98272.67
2018-09-12T03:29:18.849Z,98270.20
2018-09-12T03:31:46.498Z,98267.03
2018-09-12T03:34:13.457Z,98268.27
2018-09-12T03:36:40.457Z,98265.70
2018-09-12T03:39:08.224Z,98270.45
2018-09-12T03:41:37.780Z,98268.27
2018-09-12T03:46:37.354Z,98266.50
2018-09-12T03:49:05.038Z,98270.02
2018-09-12T03:51:32.732Z,98272.66
2018-09-12T03:53:59.745Z,98273.38
2018-09-12T03:56:26.642Z,98274.30
2018-09-12T03:58:53.857Z,98269.41
2018-09-12T04:04:00.117Z,98263.59
2018-09-12T04:06:30.263Z,98264.08
2018-09-12T04:08:56.812Z,98268.70
2018-09-12T04:11:24.956Z,98270.93
2018-09-12T04:13:54.183Z,98263.68
2018-09-12T04:16:23.265Z,98272.66
2018-09-12T04:18:52.378Z,98269.27
2018-09-12T04:21:19.066Z,98265.48
2018-09-12T04:23:47.369Z,98264.69
2018-09-12T04:26:16.314Z,98269.75
2018-09-12T04:28:43.544Z,98264.48
2018-09-12T04:31:10.492Z,98257.64
2018-09-12T04:33:39.637Z,98257.31
2018-09-12T04:38:39.168Z,98257.53
2018-09-12T04:41:05.781Z,98254.36
2018-09-12T04:43:32.523Z,98256.00
2018-09-12T04:48:31.168Z,98257.83
2018-09-12T04:50:58.590Z,98257.10
2018-09-12T04:53:25.786Z,98257.00
2018-09-12T04:55:53.230Z,98257.09
2018-09-12T04:58:20.226Z,98261.33
2018-09-12T05:00:47.759Z,98256.02
2018-09-12T05:03:14.902Z,98253.56
2018-09-12T05:05:41.464Z,98264.47
2018-09-12T05:08:07.976Z,98262.59
2018-09-12T05:10:34.993Z,98265.05
2018-09-12T05:13:01.636Z,98263.75
2018-09-12T05:15:29.164Z,98266.95
2018-09-12T05:17:55.859Z,98269.77
2018-09-12T05:20:22.511Z,98267.86
2018-09-12T05:22:49.505Z,98268.24
2018-09-12T05:25:16.631Z,98266.64
2018-09-12T05:27:44.933Z,98276.34
2018-09-12T05:30:11.687Z,98276.97
2018-09-12T05:32:39.999Z,98268.22
2018-09-12T05:35:07.969Z,98266.38
2018-09-12T05:37:34.651Z,98265.59
2018-09-12T05:40:01.662Z,98267.03
2018-09-12T05:42:28.439Z,98271.80
2018-09-12T05:44:55.113Z,98263.19
2018-09-12T05:47:23.100Z,98259.35
2018-09-12T05:49:49.689Z,98253.94
2018-09-12T05:52:17.105Z,98259.35
2018-09-12T05:54:46.071Z,98249.75
2018-09-12T05:57:12.875Z,98248.19
2018-09-12T05:59:39.547Z,98251.20
2018-09-12T06:02:06.317Z,98241.04
2018-09-12T06:04:33.523Z,98247.17
2018-09-12T06:07:01.243Z,98249.80
2018-09-12T06:09:29.560Z,98247.77
2018-09-12T06:11:56.304Z,98247.69
2018-09-12T06:14:22.885Z,98241.88
2018-09-12T06:16:49.540Z,98239.84
2018-09-12T06:19:16.752Z,98242.08
2018-09-12T06:21:43.323Z,98241.66
2018-09-12T06:24:12.979Z,98241.07
2018-09-12T06:26:39.880Z,98241.03
2018-09-12T06:29:06.558Z,98243.83
2018-09-12T06:31:36.412Z,98243.12
2018-09-12T06:34:02.954Z,98245.44
2018-09-12T06:36:35.573Z,98240.94
2018-09-12T06:41:35.727Z,98243.95
2018-09-12T06:44:02.395Z,98239.16
2018-09-12T06:46:31.723Z,98240.42
2018-09-12T06:51:30.098Z,98240.06
2018-09-12T06:53:57.524Z,98238.63
2018-09-12T06:56:24.192Z,98238.41
2018-09-12T06:58:51.312Z,98242.34
2018-09-12T07:01:17.935Z,98249.73
2018-09-12T07:03:45.740Z,98246.34
2018-09-12T07:06:12.356Z,98249.83
2018-09-12T07:08:40.006Z,98248.19
2018-09-12T07:11:11.156Z,98252.39
2018-09-12T07:13:39.715Z,98252.12
2018-09-12T07:16:07.968Z,98244.08
2018-09-12T07:18:35.675Z,98242.89
2018-09-12T07:23:34.554Z,98243.50
2018-09-12T07:26:01.530Z,98244.19
2018-09-12T07:28:28.860Z,98243.06
2018-09-12T07:30:55.709Z,98251.55
2018-09-12T07:33:22.342Z,98237.28
2018-09-12T07:40:53.307Z,98232.63
2018-09-12T07:43:20.351Z,98239.42
2018-09-12T07:45:47.011Z,98241.28
2018-09-12T07:50:46.892Z,98239.45
2018-09-12T07:53:16.435Z,98233.84
2018-09-12T07:55:44.088Z,98240.08
2018-09-12T07:58:11.549Z,98235.70
2018-09-12T08:00:39.816Z,98234.34
2018-09-12T08:03:06.666Z,98237.93
2018-09-12T08:05:33.433Z,98229.59
2018-09-12T08:08:00.096Z,98234.89
2018-09-12T08:10:26.716Z,98237.50
2018-09-12T08:12:53.766Z,98233.77
2018-09-12T08:15:21.647Z,98233.60
2018-09-12T08:17:49.503Z,98234.53
2018-09-12T08:20:16.097Z,98221.38
2018-09-12T08:22:42.741Z,98225.97
2018-09-12T08:25:12.465Z,98227.88
2018-09-12T08:27:48.420Z,98226.21
2018-09-12T08:30:15.085Z,98220.35
2018-09-12T08:32:46.422Z,98223.88
2018-09-12T08:35:16.953Z,98223.33
2018-09-12T08:37:43.450Z,98222.25
2018-09-12T08:42:45.583Z,98214.68
2018-09-12T08:45:16.814Z,98211.67
2018-09-12T08:47:49.785Z,98211.62
2018-09-12T08:50:21.691Z,98214.86
2018-09-12T08:52:48.510Z,98212.48
2018-09-12T08:55:21.297Z,98210.07
2018-09-12T08:57:57.571Z,98214.80
2018-09-12T09:00:25.089Z,98216.31
2018-09-12T09:02:58.040Z,98219.52
2018-09-12T09:05:24.703Z,98210.48
2018-09-12T09:07:52.126Z,98210.89
2018-09-12T09:12:52.015Z,98198.89
2018-09-12T09:15:18.660Z,98200.86
2018-09-12T09:17:46.108Z,98202.90
2018-09-12T09:20:12.773Z,98204.11
2018-09-12T09:22:40.044Z,98195.73
2018-09-12T09:25:09.935Z,98203.44
2018-09-12T09:27:36.673Z,98201.14
2018-09-12T09:30:03.325Z,98200.02
2018-09-12T09:32:37.112Z,98198.56
2018-09-12T09:35:05.438Z,98190.59
2018-09-12T09:37:33.047Z,98187.27
2018-09-12T09:40:04.925Z,98182.05
2018-09-12T09:42:34.929Z,98177.86
2018-09-12T09:45:03.953Z,98172.74
2018-09-12T09:50:07.530Z,98170.58
2018-09-12T09:52:34.940Z,98170.53
2018-09-12T09:55:01.638Z,98164.52
2018-09-12T09:57:29.118Z,98166.52
2018-09-12T10:00:03.169Z,98162.67
2018-09-12T10:05:12.878Z,98159.47
2018-09-12T10:07:45.519Z,98155.37
2018-09-12T10:10:12.005Z,98155.66
2018-09-12T10:12:45.584Z,98145.62
2018-09-12T10:17:50.450Z,98152.19
2018-09-12T10:20:21.266Z,98143.36
2018-09-12T10:22:47.831Z,98144.92
2018-09-12T10:25:21.401Z,98138.23
2018-09-12T10:27:48.307Z,98140.78
2018-09-12T10:30:17.441Z,98134.28
2018-09-12T10:32:47.055Z,98136.59
2018-09-12T10:35:22.618Z,98133.05
2018-09-12T10:37:56.896Z,98136.99
2018-09-12T10:40:23.584Z,98124.75
2018-09-12T10:42:51.536Z,98126.21
2018-09-12T10:45:18.918Z,98121.81
2018-09-12T10:47:46.135Z,98121.49
2018-09-12T10:50:21.777Z,98113.47
2018-09-12T10:52:48.417Z,98110.33
2018-09-12T10:55:22.175Z,98108.61
2018-09-12T10:57:48.943Z,98108.77
2018-09-12T11:00:15.532Z,98094.06
2018-09-12T11:02:49.879Z,98096.88
2018-09-12T11:05:16.576Z,98098.61
2018-09-12T11:07:53.104Z,98092.36
2018-09-12T11:10:24.206Z,98096.73
2018-09-12T11:12:51.826Z,98092.28
2018-09-12T11:15:18.355Z,98093.64
2018-09-12T11:17:45.141Z,98093.28
2018-09-12T11:20:12.385Z,98093.64
2018-09-12T11:22:43.977Z,98083.20
2018-09-12T11:25:20.021Z,98082.83
2018-09-12T11:27:48.082Z,98076.81
2018-09-12T11:30:14.715Z,98074.11
2018-09-12T11:35:19.207Z,98076.71
2018-09-12T11:37:46.446Z,98070.25
2018-09-12T11:45:49.113Z,98048.92
2018-09-12T11:51:00.599Z,98050.28
2018-09-12T11:53:31.869Z,98053.01
2018-09-12T11:56:02.416Z,98048.51
2018-09-12T11:58:39.054Z,98048.28
2018-09-12T12:01:13.994Z,98045.58
2018-09-12T12:03:40.664Z,98042.30
2018-09-12T12:06:10.395Z,98044.03
2018-09-12T12:08:47.318Z,98037.60
2018-09-12T12:11:14.029Z,98028.13
2018-09-12T12:13:42.567Z,98027.27
2018-09-12T12:16:13.882Z,98013.05
2018-09-12T12:18:41.825Z,98019.31
2018-09-12T12:21:08.837Z,98011.09
2018-09-12T12:23:35.585Z,98003.22
2018-09-12T12:26:03.320Z,98008.66
2018-09-12T12:28:30.619Z,97999.07
2018-09-12T12:30:57.214Z,98000.75
2018-09-12T12:35:56.224Z,97988.30
2018-09-12T12:41:08.422Z,97978.81
2018-09-12T12:43:34.923Z,97975.23
2018-09-12T12:46:01.774Z,97974.41
2018-09-12T12:48:28.297Z,97970.98
2018-09-12T12:56:12.124Z,97958.72
2018-09-12T13:01:10.253Z,97966.02
2018-09-12T13:03:45.635Z,97961.78
2018-09-12T13:06:12.296Z,97956.05
2018-09-12T13:08:38.756Z,97956.91
2018-09-12T13:11:05.212Z,97965.09
2018-09-12T13:13:31.822Z,97950.07
2018-09-12T13:16:02.944Z,97948.89
2018-09-12T13:18:30.414Z,97939.18
2018-09-12T13:21:03.532Z,97940.48
2018-09-12T13:23:30.101Z,97932.12
2018-09-12T13:26:01.366Z,97929.71
2018-09-12T13:31:10.305Z,97926.66
2018-09-12T13:33:37.095Z,97923.79
2018-09-12T13:36:03.543Z,97917.31
2018-09-12T13:43:57.253Z,97908.81
2018-09-12T13:46:23.753Z,97899.68
2018-09-12T13:48:57.909Z,97894.97
2018-09-12T13:51:24.436Z,97894.59
2018-09-12T13:54:00.316Z,97887.34
2018-09-12T14:09:25.862Z,97885.12
2018-09-12T14:11:57.678Z,97880.39
2018-09-12T14:14:25.426Z,97877.53
2018-09-12T14:19:34.868Z,97877.05
2018-09-12T14:22:10.537Z,97870.80
2018-09-12T14:24:38.830Z,97866.31
2018-09-12T14:27:05.391Z,97857.14
2018-09-12T14:29:32.010Z,97849.80
2018-09-12T14:31:58.708Z,97844.34
2018-09-12T14:34:26.165Z,97840.31
2018-09-12T14:36:52.687Z,97844.70
2018-09-12T14:41:52.749Z,97841.64
2018-09-12T14:44:24.791Z,97837.56
2018-09-12T14:46:51.395Z,97840.53
2018-09-12T14:49:18.830Z,97836.59
2018-09-12T14:51:46.963Z,97838.59
2018-09-12T14:56:50.384Z,97823.31
2018-09-12T14:59:17.707Z,97816.93
2018-09-12T15:01:44.414Z,97822.43
2018-09-12T15:07:03.904Z,97821.95
2018-09-12T15:12:10.926Z,97816.52
2018-09-12T15:19:54.042Z,97799.06
2018-09-12T15:22:20.672Z,97791.08
2018-09-12T15:27:19.018Z,97785.78
2018-09-12T15:29:46.913Z,97788.80
2018-09-12T15:32:13.520Z,97797.23
2018-09-12T15:34:40.248Z,97793.21
2018-09-12T15:37:07.004Z,97785.13
2018-09-12T15:39:34.614Z,97785.52
2018-09-12T15:42:01.780Z,97783.09
2018-09-12T15:44:29.334Z,97776.13
2018-09-12T15:46:55.999Z,97779.33
2018-09-12T15:52:06.152Z,97779.94
2018-09-12T15:57:45.177Z,97776.80
2018-09-12T16:02:44.667Z,97780.51
2018-09-12T16:05:13.079Z,97778.92
2018-09-12T16:07:39.681Z,97780.81
2018-09-12T16:12:38.986Z,97776.55
2018-09-12T16:15:06.504Z,97770.05
2018-09-12T16:17:33.419Z,97771.91
2018-09-12T16:20:00.126Z,97765.94
2018-09-12T16:24:58.974Z,97757.23
2018-09-12T16:27:25.773Z,97756.28
2018-09-12T16:29:54.274Z,97757.66
2018-09-12T16:32:20.893Z,97759.72
2018-09-12T16:37:19.095Z,97753.72
2018-09-12T16:39:45.583Z,97763.41
2018-09-12T16:42:12.170Z,97765.89
2018-09-12T16:52:35.446Z,97766.95
2018-09-12T16:55:02.071Z,97768.70
2018-09-12T16:57:28.554Z,97780.97
2018-09-12T17:00:02.662Z,97772.53
2018-09-12T17:02:29.445Z,97771.30
2018-09-12T17:04:59.479Z,97767.91
2018-09-12T17:07:28.914Z,97775.75
2018-09-12T17:09:55.572Z,97772.44
2018-09-12T17:12:22.887Z,97769.42
2018-09-12T17:17:27.519Z,97769.05
2018-09-12T17:19:54.209Z,97768.31
2018-09-12T17:22:26.068Z,97777.25
2018-09-12T17:24:57.204Z,97770.33
2018-09-12T17:29:59.947Z,97768.67
2018-09-12T17:32:27.364Z,97770.82
2018-09-12T17:34:59.944Z,97771.29
2018-09-12T17:37:27.356Z,97768.23
2018-09-12T17:39:54.184Z,97763.66
2018-09-12T17:42:22.700Z,97768.26
2018-09-12T17:44:51.815Z,97767.50
2018-09-12T17:47:18.402Z,97773.06
2018-09-12T17:49:45.037Z,97776.92
2018-09-12T17:52:12.197Z,97782.92
2018-09-12T17:54:38.883Z,97785.73
2018-09-12T17:57:07.784Z,97794.20
2018-09-12T17:59:39.507Z,97799.38
2018-09-12T18:02:11.410Z,97797.78
2018-09-12T18:04:41.803Z,97808.19
2018-09-12T18:07:11.464Z,97812.80
2018-09-12T18:09:42.128Z,97805.30
2018-09-12T18:12:08.783Z,97809.92
2018-09-12T18:14:36.647Z,97811.27
2018-09-12T18:17:08.477Z,97813.45
2018-09-12T18:19:40.398Z,97806.44
2018-09-12T18:22:11.350Z,97813.72
2018-09-12T18:27:11.099Z,97824.27
2018-09-12T18:29:38.410Z,97822.38
2018-09-12T18:37:13.756Z,97807.57
2018-09-12T18:39:40.619Z,97805.42
2018-09-12T18:42:07.376Z,97805.70
2018-09-12T18:44:35.595Z,97807.85
2018-09-12T18:47:04.911Z,97807.59
2018-09-12T18:49:36.154Z,97806.51
2018-09-12T18:52:02.735Z,97804.61
2018-09-12T18:54:30.194Z,97797.08
2018-09-12T18:56:56.791Z,97802.45
2018-09-12T19:01:59.913Z,97794.85
2018-09-12T19:04:28.932Z,97788.08
2018-09-12T19:06:56.531Z,97793.81
2018-09-12T19:09:23.262Z,97799.48
2018-09-12T19:11:50.286Z,97801.09
2018-09-12T19:14:21.424Z,97800.79
2018-09-12T19:16:49.236Z,97803.39
2018-09-12T19:19:20.646Z,97807.13
2018-09-12T19:21:47.586Z,97804.14
2018-09-12T19:26:52.960Z,97798.31
2018-09-12T19:29:22.385Z,97793.67
2018-09-12T19:31:52.388Z,97800.03
2018-09-12T19:34:20.710Z,97801.12
2018-09-12T19:36:48.409Z,97803.23
2018-09-12T19:39:15.969Z,97804.25
2018-09-12T19:41:45.054Z,97807.20
2018-09-12T19:44:11.703Z,97801.83
2018-09-12T19:46:39.291Z,97799.95
2018-09-12T19:49:08.244Z,97804.73
2018-09-12T19:51:34.958Z,97809.50
2018-09-12T19:54:03.892Z,97810.66
2018-09-12T19:56:30.679Z,97815.34
2018-09-12T19:58:57.304Z,97812.40
2018-09-12T20:01:24.332Z,97811.98
2018-09-12T20:03:51.795Z,97814.64
2018-09-12T20:06:19.967Z,97815.13
2018-09-12T20:08:47.159Z,97824.59
2018-09-12T20:13:49.362Z,97824.39
2018-09-12T20:16:15.947Z,97821.55
2018-09-12T20:18:43.298Z,97819.52
2018-09-12T20:21:11.113Z,97820.03
2018-09-12T20:23:37.883Z,97823.73
2018-09-12T20:26:07.497Z,97829.39
2018-09-12T20:28:34.103Z,97830.13
2018-09-12T20:31:02.176Z,97828.27
2018-09-12T20:33:28.775Z,97824.92
2018-09-12T20:38:28.450Z,97821.86
2018-09-12T20:40:56.633Z,97823.14
2018-09-12T20:43:23.272Z,97822.83
2018-09-12T20:48:25.854Z,97811.70
2018-09-12T20:50:52.583Z,97815.66
2018-09-12T20:53:20.886Z,97805.74
2018-09-12T20:55:50.420Z,97802.55
2018-09-12T20:58:18.121Z,97803.01
2018-09-12T21:00:45.423Z,97802.98
2018-09-12T21:03:14.869Z,97807.03
2018-09-12T21:05:42.194Z,97797.55
2018-09-12T21:08:09.716Z,97799.18
2018-09-12T21:10:40.245Z,97791.86
2018-09-12T21:15:39.464Z,97792.98
2018-09-12T21:18:07.083Z,97790.50
2018-09-12T21:20:39.980Z,97796.16
2018-09-12T21:23:07.426Z,97791.15
2018-09-12T21:25:35.021Z,97786.83
2018-09-12T21:28:03.603Z,97786.33
2018-09-12T21:30:31.186Z,97785.59
2018-09-12T21:33:01.471Z,97778.73
2018-09-12T21:35:29.632Z,97777.13
2018-09-12T21:37:57.022Z,97775.52
2018-09-12T21:40:25.948Z,97767.69
2018-09-12T21:42:54.351Z,97771.77
2018-09-12T21:45:21.115Z,97773.61
2018-09-12T21:47:50.220Z,97771.23
2018-09-12T21:50:16.885Z,97773.84
2018-09-12T21:52:43.433Z,97771.80
2018-09-12T21:55:13.436Z,97774.02
2018-09-12T21:57:39.993Z,97772.41
2018-09-12T22:00:11.487Z,97772.17
2018-09-12T22:02:41.758Z,97772.12
2018-09-12T22:07:41.852Z,97756.00
2018-09-12T22:10:08.744Z,97760.16
2018-09-12T22:12:35.490Z,97763.60
2018-09-12T22:15:02.059Z,97752.59
2018-09-12T22:17:30.640Z,97756.27
2018-09-12T22:19:57.511Z,97750.84
2018-09-12T22:22:24.527Z,97752.45
2018-09-12T22:24:51.934Z,97755.83
2018-09-12T22:27:18.769Z,97763.80
2018-09-12T22:29:45.428Z,97757.12
2018-09-12T22:32:12.757Z,97755.02
2018-09-12T22:34:41.225Z,97760.63
2018-09-12T22:37:08.360Z,97754.83
2018-09-12T22:39:36.286Z,97754.55
2018-09-12T22:42:03.654Z,97752.45
2018-09-12T22:44:31.006Z,97753.94
2018-09-12T22:46:59.722Z,97751.41
2018-09-12T22:49:29.060Z,97745.42
2018-09-12T22:51:56.832Z,97752.34
2018-09-12T22:54:25.013Z,97751.77
2018-09-12T22:56:51.775Z,97756.39
2018-09-12T22:59:19.312Z,97756.45
2018-09-12T23:01:45.998Z,97755.50
2018-09-12T23:04:12.778Z,97755.36
2018-09-12T23:06:39.442Z,97759.49
2018-09-12T23:09:06.245Z,97756.86
2018-09-12T23:11:32.821Z,97754.64
2018-09-12T23:13:59.858Z,97751.80
2018-09-12T23:16:28.091Z,97753.39
2018-09-12T23:18:54.771Z,97752.14
2018-09-12T23:21:21.826Z,97746.34
2018-09-12T23:23:48.399Z,97739.93
2018-09-12T23:26:15.708Z,97740.02
2018-09-12T23:31:14.806Z,97745.41
2018-09-12T23:33:41.482Z,97742.44
2018-09-12T23:36:09.077Z,97743.19
2018-09-12T23:38:37.102Z,97746.88
2018-09-12T23:41:03.968Z,97739.41
2018-09-12T23:43:30.711Z,97736.70
2018-09-12T23:45:58.156Z,97725.38
2018-09-12T23:48:24.690Z,97715.13
2018-09-12T23:50:51.549Z,97713.77
2018-09-12T23:55:52.863Z,97718.15
2018-09-12T23:58:19.698Z,97714.53
